Accueil
METAR-TAF:

METAR-TAF

Aéroports :

Aéroport Léonard-de-Vinci de Rome Fiumicino

Rome-Fiumicino, Italie

latitude: 41-48N, longitude: 012-14E, altitude: 2 m

Observation

Le bulletin a été fait il y a 31 minutes, à 22:20 UTC
Vent 5 kt de nord/nord-est
Température 8°C
Humidité 42%
Pression 1020 hPa
Visibilité 10 km ou plus
pas de nuages en-dessous de 1500 mètres et pas de cumulonimbus.

METAR: LIRF 282220Z 02005KT CAVOK 08/M04 Q1020 NOSIG

Heure: 23:51 (22:51 UTC)

Prévision

Le bulletin a été fait il y a 5 heures et 51 minutes, à 17:00 UTC
Prévision valable du 28 à 18 UTC au 29 à 24 UTC
Vent 10 kt de nord
Visibilité 10 km ou plus
Nuages épars à une hauteur de 3000 ft
Evoluant progressivement
du 28 à 19 UTC au 28 à 22 UTC
Vent 7 kt de est
Evoluant progressivement
du 29 à 06 UTC au 29 à 08 UTC
Vent 14 kt de sud/sud-est

TAF: LIRF 281700Z 2818/2924 01010KT 9999 SCT030 BECMG 2819/2822 10007KT BECMG 2906/2908 16014KT

Observations et prévisions météorologiques de plus de 4000 aéroports (messages METAR et TAF).

Les stations disponibles sont représentées par des disques jaunes et rouges sur la carte.

Passer la souris dessus pour voir le nom de la station.

Cliquer dessus pour voir les observations et prévisions météorologiques.

Pour changer de carte: cliquez sur les boutons verts avec une croix noire pour zoomer, sur le bouton vert avec un tiret pour effectuer un zoom arrière, ou sur les flèches vertes pour les cartes adjacentes.


METAR-TAF: